createdAt,value
2018-05-15T00:00:07.479Z,0.00
2018-05-15T00:01:07.511Z,0.00
2018-05-15T00:02:07.547Z,0.00
2018-05-15T00:03:07.582Z,0.00
2018-05-15T00:04:07.612Z,0.00
2018-05-15T00:05:07.648Z,0.00
2018-05-15T00:06:07.680Z,0.00
2018-05-15T00:07:07.712Z,0.00
2018-05-15T00:08:07.745Z,0.00
2018-05-15T00:09:07.779Z,0.00
2018-05-15T00:10:07.813Z,0.00
2018-05-15T00:11:07.849Z,0.00
2018-05-15T00:12:07.878Z,0.00
2018-05-15T00:13:07.911Z,0.00
2018-05-15T00:14:07.946Z,0.00
2018-05-15T00:15:07.979Z,0.00
2018-05-15T00:16:08.011Z,0.00
2018-05-15T00:17:08.046Z,0.00
2018-05-15T00:18:08.078Z,0.00
2018-05-15T00:19:08.113Z,0.00
2018-05-15T00:20:08.151Z,0.00
2018-05-15T00:21:08.179Z,0.00
2018-05-15T00:22:08.213Z,0.00
2018-05-15T00:23:08.246Z,0.00
2018-05-15T00:24:08.278Z,0.00
2018-05-15T00:25:08.312Z,0.00
2018-05-15T00:26:08.345Z,0.00
2018-05-15T00:27:08.380Z,0.00
2018-05-15T00:28:08.411Z,0.00
2018-05-15T00:29:08.447Z,0.00
2018-05-15T00:30:08.480Z,0.00
2018-05-15T00:31:08.517Z,0.00
2018-05-15T00:32:08.546Z,0.00
2018-05-15T00:33:08.580Z,0.00
2018-05-15T00:34:08.613Z,0.00
2018-05-15T00:35:08.647Z,0.00
2018-05-15T00:36:08.681Z,0.00
2018-05-15T00:37:08.713Z,0.00
2018-05-15T00:38:08.747Z,0.00
2018-05-15T00:39:08.780Z,0.00
2018-05-15T00:40:08.813Z,0.00
2018-05-15T00:41:08.850Z,0.00
2018-05-15T00:42:08.880Z,0.00
2018-05-15T00:43:08.915Z,0.00
2018-05-15T00:44:08.970Z,0.00
2018-05-15T00:45:08.980Z,0.00
2018-05-15T00:46:09.017Z,0.00
2018-05-15T00:47:09.049Z,0.00
2018-05-15T00:48:09.080Z,0.00
2018-05-15T00:49:09.115Z,0.00
2018-05-15T00:50:09.147Z,0.00
2018-05-15T00:51:09.182Z,0.00
2018-05-15T00:52:09.215Z,0.00
2018-05-15T00:53:09.247Z,0.00
2018-05-15T00:54:09.283Z,0.00
2018-05-15T00:55:09.319Z,0.00
2018-05-15T00:56:09.347Z,0.00
2018-05-15T00:57:09.383Z,0.00
2018-05-15T00:58:09.420Z,0.00
2018-05-15T00:59:09.450Z,0.00
2018-05-15T01:00:09.483Z,0.00
2018-05-15T01:01:09.517Z,0.00
2018-05-15T01:02:09.553Z,0.00
2018-05-15T01:03:09.584Z,0.00
2018-05-15T01:04:09.617Z,0.00
2018-05-15T01:05:09.654Z,0.00
2018-05-15T01:06:09.684Z,0.00
2018-05-15T01:07:09.718Z,0.00
2018-05-15T01:08:09.750Z,0.00
2018-05-15T01:09:09.784Z,0.00
2018-05-15T01:10:09.821Z,0.00
2018-05-15T01:11:09.854Z,0.00
2018-05-15T01:12:09.886Z,0.00
2018-05-15T01:13:09.920Z,0.00
2018-05-15T01:14:09.954Z,0.00
2018-05-15T01:15:09.987Z,0.00
2018-05-15T01:16:10.021Z,0.00
2018-05-15T01:17:10.057Z,0.00
2018-05-15T01:18:10.091Z,0.00
2018-05-15T01:19:10.122Z,0.00
2018-05-15T01:20:10.155Z,0.00
2018-05-15T01:21:10.190Z,0.00
2018-05-15T01:22:10.223Z,0.00
2018-05-15T01:23:10.256Z,0.00
2018-05-15T01:24:10.288Z,0.00
2018-05-15T01:25:10.323Z,0.00
2018-05-15T01:26:10.357Z,0.00
2018-05-15T01:27:10.390Z,0.00
2018-05-15T01:28:10.424Z,0.00
2018-05-15T01:29:10.459Z,0.00
2018-05-15T01:30:10.491Z,0.00
2018-05-15T01:31:10.525Z,0.00
2018-05-15T01:32:10.557Z,0.00
2018-05-15T01:33:10.591Z,0.00
2018-05-15T01:34:10.625Z,0.00
2018-05-15T01:35:10.657Z,0.00
2018-05-15T01:36:10.691Z,0.00
2018-05-15T01:37:10.808Z,0.00
2018-05-15T01:38:10.759Z,0.00
2018-05-15T01:39:10.793Z,0.00
2018-05-15T01:40:10.826Z,0.00
2018-05-15T01:41:10.859Z,0.00
2018-05-15T01:42:10.893Z,0.00
2018-05-15T01:43:10.927Z,0.00
2018-05-15T01:44:10.961Z,0.00
2018-05-15T01:45:10.998Z,0.00
2018-05-15T01:46:11.027Z,0.00
2018-05-15T01:47:11.060Z,0.00
2018-05-15T01:48:11.094Z,0.00
2018-05-15T01:49:11.128Z,0.00
2018-05-15T01:50:11.160Z,0.00
2018-05-15T01:51:11.194Z,0.00
2018-05-15T01:52:11.227Z,0.00
2018-05-15T01:53:11.261Z,0.00
2018-05-15T01:54:11.297Z,0.00
2018-05-15T01:55:11.328Z,0.00
2018-05-15T01:56:11.359Z,0.00
2018-05-15T01:57:11.393Z,0.00
2018-05-15T01:58:11.428Z,0.00
2018-05-15T01:59:11.466Z,0.00
2018-05-15T02:00:11.496Z,0.00
2018-05-15T02:01:11.526Z,0.00
2018-05-15T02:02:11.560Z,0.00
2018-05-15T02:03:11.596Z,0.00
2018-05-15T02:04:11.631Z,0.00
2018-05-15T02:05:11.660Z,0.00
2018-05-15T02:06:11.707Z,0.00
2018-05-15T02:07:11.729Z,0.00
2018-05-15T02:08:11.762Z,0.00
2018-05-15T02:09:11.794Z,0.00
2018-05-15T02:10:11.830Z,0.00
2018-05-15T02:11:11.862Z,0.00
2018-05-15T02:12:11.895Z,0.00
2018-05-15T02:13:11.929Z,0.00
2018-05-15T02:14:11.962Z,0.00
2018-05-15T02:15:11.997Z,0.00
2018-05-15T02:16:12.084Z,0.00
2018-05-15T02:17:12.063Z,0.00
2018-05-15T02:18:12.097Z,0.00
2018-05-15T02:19:12.131Z,0.00
2018-05-15T02:20:12.162Z,0.00
2018-05-15T02:21:12.197Z,0.00
2018-05-15T02:22:12.230Z,0.00
2018-05-15T02:23:12.264Z,0.00
2018-05-15T02:24:12.298Z,0.00
2018-05-15T02:25:12.331Z,0.00
2018-05-15T02:26:12.366Z,0.00
2018-05-15T02:27:12.398Z,0.00
2018-05-15T02:28:12.435Z,0.00
2018-05-15T02:29:12.464Z,0.00
2018-05-15T02:30:12.499Z,0.00
2018-05-15T02:31:12.533Z,0.00
2018-05-15T02:32:12.572Z,0.00
2018-05-15T02:33:12.599Z,0.00
2018-05-15T02:34:12.632Z,0.00
2018-05-15T02:35:12.667Z,0.00
2018-05-15T02:36:12.701Z,0.00
2018-05-15T02:37:12.735Z,0.00
2018-05-15T02:38:12.767Z,0.00
2018-05-15T02:39:12.800Z,0.00
2018-05-15T02:40:12.834Z,0.00
2018-05-15T02:41:12.868Z,0.00
2018-05-15T02:42:12.902Z,0.00
2018-05-15T02:43:12.935Z,0.00
2018-05-15T02:44:12.971Z,0.00
2018-05-15T02:45:13.006Z,0.00
2018-05-15T02:46:13.035Z,0.00
2018-05-15T02:47:13.070Z,0.00
2018-05-15T02:48:13.107Z,0.00
2018-05-15T02:49:13.136Z,0.00
2018-05-15T02:50:13.168Z,0.00
2018-05-15T02:51:13.202Z,0.00
2018-05-15T02:52:13.237Z,0.00
2018-05-15T02:53:13.271Z,0.00
2018-05-15T02:54:13.304Z,0.00
2018-05-15T02:55:13.338Z,0.00
2018-05-15T02:56:13.368Z,0.00
2018-05-15T02:57:13.404Z,0.00
2018-05-15T02:58:13.441Z,0.00
2018-05-15T02:59:13.471Z,0.00
2018-05-15T03:00:13.503Z,0.00
2018-05-15T03:01:13.538Z,0.00
2018-05-15T03:02:13.570Z,0.00
2018-05-15T03:03:13.608Z,0.00
2018-05-15T03:04:13.639Z,0.00
2018-05-15T03:05:13.672Z,0.00
2018-05-15T03:06:13.705Z,0.00
2018-05-15T03:07:13.740Z,0.00
2018-05-15T03:08:13.772Z,0.00
2018-05-15T03:09:13.808Z,0.00
2018-05-15T03:10:13.839Z,0.00
2018-05-15T03:11:13.872Z,0.00
2018-05-15T03:12:13.904Z,0.00
2018-05-15T03:13:13.942Z,0.00
2018-05-15T03:14:13.972Z,0.00
2018-05-15T03:15:14.007Z,0.00
2018-05-15T03:16:14.041Z,0.00
2018-05-15T03:17:14.073Z,0.00
2018-05-15T03:18:14.106Z,0.00
2018-05-15T03:19:14.140Z,4.00
2018-05-15T03:20:14.173Z,4.00
2018-05-15T03:21:14.207Z,4.00
2018-05-15T03:22:14.240Z,4.00
2018-05-15T03:23:14.277Z,4.00
2018-05-15T03:24:14.308Z,4.00
2018-05-15T03:25:14.340Z,8.00
2018-05-15T03:26:14.374Z,4.00
2018-05-15T03:27:14.409Z,8.00
2018-05-15T03:28:14.443Z,8.00
2018-05-15T03:29:14.475Z,8.00
2018-05-15T03:30:14.508Z,12.00
2018-05-15T03:31:14.545Z,12.00
2018-05-15T03:32:14.574Z,12.00
2018-05-15T03:33:14.635Z,16.00
2018-05-15T03:34:14.643Z,16.00
2018-05-15T03:35:14.675Z,16.00
2018-05-15T03:36:14.709Z,16.00
2018-05-15T03:37:14.743Z,20.00
2018-05-15T03:38:14.776Z,24.00
2018-05-15T03:39:14.809Z,28.00
2018-05-15T03:40:14.843Z,32.00
2018-05-15T03:41:14.876Z,36.00
2018-05-15T03:42:14.910Z,44.00
2018-05-15T03:43:14.944Z,52.00
2018-05-15T03:44:14.977Z,60.00
2018-05-15T03:45:15.010Z,72.00
2018-05-15T03:46:15.044Z,76.00
2018-05-15T03:47:15.078Z,76.00
2018-05-15T03:48:15.110Z,92.00
2018-05-15T03:49:15.144Z,116.00
2018-05-15T03:50:15.178Z,144.00
2018-05-15T03:51:15.211Z,176.00
2018-05-15T03:52:15.248Z,196.00
2018-05-15T03:53:15.278Z,212.00
2018-05-15T03:54:15.311Z,224.00
2018-05-15T03:55:15.347Z,244.00
2018-05-15T03:56:15.378Z,272.00
2018-05-15T03:57:15.411Z,304.00
2018-05-15T03:58:15.445Z,332.00
2018-05-15T03:59:15.479Z,348.00
2018-05-15T04:00:15.512Z,356.00
2018-05-15T04:01:15.545Z,348.00
2018-05-15T04:02:15.673Z,336.00
2018-05-15T04:03:15.612Z,324.00
2018-05-15T04:04:15.645Z,312.00
2018-05-15T04:05:15.681Z,304.00
2018-05-15T04:06:15.713Z,300.00
2018-05-15T04:07:15.746Z,304.00
2018-05-15T04:08:15.777Z,308.00
2018-05-15T04:09:15.813Z,304.00
2018-05-15T04:10:15.846Z,316.00
2018-05-15T04:11:15.880Z,336.00
2018-05-15T04:12:15.913Z,360.00
2018-05-15T04:13:15.946Z,388.00
2018-05-15T04:14:15.981Z,416.00
2018-05-15T04:15:16.014Z,436.00
2018-05-15T04:16:16.047Z,440.00
2018-05-15T04:17:16.083Z,420.00
2018-05-15T04:18:16.117Z,384.00
2018-05-15T04:19:16.149Z,364.00
2018-05-15T04:20:16.181Z,372.00
2018-05-15T04:21:16.216Z,400.00
2018-05-15T04:22:16.250Z,432.00
2018-05-15T04:23:16.283Z,460.00
2018-05-15T04:24:16.316Z,496.00
2018-05-15T04:25:16.349Z,528.00
2018-05-15T04:26:16.383Z,548.00
2018-05-15T04:27:16.417Z,548.00
2018-05-15T04:28:16.497Z,548.00
2018-05-15T04:29:16.483Z,532.00
2018-05-15T04:30:16.523Z,504.00
2018-05-15T04:31:16.553Z,476.00
2018-05-15T04:32:16.585Z,444.00
2018-05-15T04:33:16.619Z,412.00
2018-05-15T04:34:16.652Z,388.00
2018-05-15T04:35:16.755Z,368.00
2018-05-15T04:36:16.720Z,364.00
2018-05-15T04:37:16.756Z,380.00
2018-05-15T04:38:16.788Z,400.00
2018-05-15T04:39:16.822Z,420.00
2018-05-15T04:40:16.857Z,436.00
2018-05-15T04:41:16.887Z,476.00
2018-05-15T04:42:16.922Z,544.00
2018-05-15T04:43:16.955Z,632.00
2018-05-15T04:44:16.988Z,696.00
2018-05-15T04:45:17.024Z,724.00
2018-05-15T04:46:17.056Z,728.00
2018-05-15T04:47:17.091Z,736.00
2018-05-15T04:48:17.122Z,756.00
2018-05-15T04:49:17.231Z,780.00
2018-05-15T04:50:17.191Z,792.00
2018-05-15T04:51:17.224Z,800.00
2018-05-15T04:52:17.257Z,816.00
2018-05-15T04:53:17.290Z,828.00
2018-05-15T04:54:17.325Z,836.00
2018-05-15T04:55:17.359Z,864.00
2018-05-15T04:56:17.390Z,916.00
2018-05-15T04:57:17.424Z,1004.00
2018-05-15T04:58:17.458Z,1116.00
2018-05-15T04:59:17.496Z,1232.00
2018-05-15T05:00:17.527Z,1336.00
2018-05-15T05:01:17.560Z,1380.00
2018-05-15T05:02:17.593Z,1348.00
2018-05-15T05:03:17.627Z,1236.00
2018-05-15T05:04:17.660Z,1108.00
2018-05-15T05:05:17.695Z,1016.00
2018-05-15T05:06:17.727Z,972.00
2018-05-15T05:07:17.760Z,964.00
2018-05-15T05:08:17.797Z,972.00
2018-05-15T05:09:17.828Z,1020.00
2018-05-15T05:10:17.862Z,1116.00
2018-05-15T05:11:17.897Z,1228.00
2018-05-15T05:12:17.929Z,1308.00
2018-05-15T05:13:17.963Z,1332.00
2018-05-15T05:14:17.997Z,1296.00
2018-05-15T05:15:18.030Z,1224.00
2018-05-15T05:16:18.064Z,1120.00
2018-05-15T05:17:18.098Z,1016.00
2018-05-15T05:18:18.133Z,936.00
2018-05-15T05:19:18.165Z,868.00
2018-05-15T05:20:18.198Z,816.00
2018-05-15T05:21:18.236Z,804.00
2018-05-15T05:22:18.267Z,872.00
2018-05-15T05:23:18.299Z,952.00
2018-05-15T05:24:18.334Z,1048.00
2018-05-15T05:25:18.369Z,1212.00
2018-05-15T05:26:18.401Z,1356.00
2018-05-15T05:27:18.435Z,1428.00
2018-05-15T05:28:18.468Z,1508.00
2018-05-15T05:29:18.502Z,1532.00
2018-05-15T05:30:18.536Z,1484.00
2018-05-15T05:31:18.570Z,1476.00
2018-05-15T05:32:18.603Z,1552.00
2018-05-15T05:33:18.691Z,1692.00
2018-05-15T05:34:18.671Z,1816.00
2018-05-15T05:35:18.708Z,1780.00
2018-05-15T05:36:18.739Z,1584.00
2018-05-15T05:37:18.772Z,1388.00
2018-05-15T05:38:18.806Z,1276.00
2018-05-15T05:39:18.841Z,1228.00
2018-05-15T05:40:18.873Z,1248.00
2018-05-15T05:41:18.906Z,1356.00
2018-05-15T05:42:18.941Z,1492.00
2018-05-15T05:43:18.975Z,1612.00
2018-05-15T05:44:19.008Z,1684.00
2018-05-15T05:45:19.042Z,1804.00
2018-05-15T05:46:19.086Z,1936.00
2018-05-15T05:47:19.114Z,2036.00
2018-05-15T05:48:19.142Z,2036.00
2018-05-15T05:49:19.177Z,1944.00
2018-05-15T05:50:19.211Z,1868.00
2018-05-15T05:51:19.244Z,1832.00
2018-05-15T05:52:19.280Z,1908.00
2018-05-15T05:53:19.311Z,2236.00
2018-05-15T05:54:19.345Z,2800.00
2018-05-15T05:55:19.379Z,3292.00
2018-05-15T05:56:19.416Z,3616.00
2018-05-15T05:57:19.447Z,3960.00
2018-05-15T05:58:19.479Z,4440.00
2018-05-15T05:59:19.516Z,5080.00
2018-05-15T06:00:19.548Z,5648.00
2018-05-15T06:01:19.582Z,6172.00
2018-05-15T06:02:19.614Z,6312.00
2018-05-15T06:03:19.651Z,5976.00
2018-05-15T06:04:19.731Z,5532.00
2018-05-15T06:05:19.717Z,5136.00
2018-05-15T06:06:19.751Z,4884.00
2018-05-15T06:07:19.828Z,4808.00
2018-05-15T06:08:19.819Z,4772.00
2018-05-15T06:09:19.854Z,4704.00
2018-05-15T06:10:19.888Z,4584.00
2018-05-15T06:11:19.921Z,4412.00
2018-05-15T06:12:19.957Z,4244.00
2018-05-15T06:13:19.990Z,4208.00
2018-05-15T06:14:20.087Z,4316.00
2018-05-15T06:15:20.060Z,4556.00
2018-05-15T06:16:20.096Z,4840.00
2018-05-15T06:17:20.128Z,5204.00
2018-05-15T06:18:20.162Z,5480.00
2018-05-15T06:19:20.197Z,5628.00
2018-05-15T06:20:20.231Z,5684.00
2018-05-15T06:21:20.345Z,5612.00
2018-05-15T06:22:20.301Z,5336.00
2018-05-15T06:23:20.335Z,4952.00
2018-05-15T06:24:20.369Z,4588.00
2018-05-15T06:25:20.404Z,4244.00
2018-05-15T06:26:20.444Z,4004.00
2018-05-15T06:27:20.475Z,3968.00
2018-05-15T06:28:20.510Z,4024.00
2018-05-15T06:29:20.542Z,4048.00
2018-05-15T06:30:20.577Z,4004.00
2018-05-15T06:31:20.612Z,3896.00
2018-05-15T06:32:20.719Z,3760.00
2018-05-15T06:33:20.680Z,3576.00
2018-05-15T06:34:20.715Z,3416.00
2018-05-15T06:35:20.751Z,3328.00
2018-05-15T06:36:20.784Z,3268.00
2018-05-15T06:37:20.820Z,3136.00
2018-05-15T06:38:20.855Z,2876.00
2018-05-15T06:39:20.889Z,2728.00
2018-05-15T06:40:20.923Z,2896.00
2018-05-15T06:41:20.957Z,3344.00
2018-05-15T06:42:20.992Z,3880.00
2018-05-15T06:43:21.026Z,4368.00
2018-05-15T06:44:21.061Z,4760.00
2018-05-15T06:45:21.096Z,5040.00
2018-05-15T06:46:21.131Z,5284.00
2018-05-15T06:47:21.165Z,5424.00
2018-05-15T06:48:21.207Z,5480.00
2018-05-15T06:49:21.235Z,5392.00
2018-05-15T06:50:21.269Z,5256.00
2018-05-15T06:51:21.304Z,5232.00
2018-05-15T06:52:21.337Z,5140.00
2018-05-15T06:53:21.373Z,4992.00
2018-05-15T06:54:21.406Z,4908.00
2018-05-15T06:55:21.443Z,4704.00
2018-05-15T06:56:21.480Z,4484.00
2018-05-15T06:57:21.511Z,4292.00
2018-05-15T06:58:21.546Z,4012.00
2018-05-15T06:59:21.581Z,4068.00
2018-05-15T07:00:21.616Z,4216.00
2018-05-15T07:01:21.650Z,4108.00
2018-05-15T07:02:21.685Z,4264.00
2018-05-15T07:03:21.720Z,4612.00
2018-05-15T07:04:21.754Z,5192.00
2018-05-15T07:05:21.789Z,5624.00
2018-05-15T07:06:21.823Z,6012.00
2018-05-15T07:07:21.859Z,6372.00
2018-05-15T07:08:21.893Z,6608.00
2018-05-15T07:09:21.928Z,6728.00
2018-05-15T07:10:21.963Z,6724.00
2018-05-15T07:11:21.998Z,6540.00
2018-05-15T07:12:22.032Z,6212.00
2018-05-15T07:13:22.070Z,5848.00
2018-05-15T07:14:22.102Z,5364.00
2018-05-15T07:15:22.138Z,4884.00
2018-05-15T07:16:22.171Z,4852.00
2018-05-15T07:17:22.207Z,4440.00
2018-05-15T07:18:22.245Z,3900.00
2018-05-15T07:19:22.318Z,4216.00
2018-05-15T07:20:22.310Z,5008.00
2018-05-15T07:21:22.344Z,5368.00
2018-05-15T07:22:22.381Z,5608.00
2018-05-15T07:23:22.416Z,5784.00
2018-05-15T07:24:22.450Z,6040.00
2018-05-15T07:25:22.485Z,6048.00
2018-05-15T07:26:22.520Z,5944.00
2018-05-15T07:27:22.593Z,5604.00
2018-05-15T07:28:22.590Z,5472.00
2018-05-15T07:29:22.630Z,5500.00
2018-05-15T07:30:22.658Z,5820.00
2018-05-15T07:31:22.695Z,6480.00
2018-05-15T07:32:22.728Z,8276.00
2018-05-15T07:33:22.766Z,8904.00
2018-05-15T07:34:22.799Z,8912.00
2018-05-15T07:35:22.838Z,9064.00
2018-05-15T07:36:22.868Z,9284.00
2018-05-15T07:37:22.903Z,9100.00
2018-05-15T07:38:22.938Z,8616.00
2018-05-15T07:39:22.975Z,8028.00
2018-05-15T07:40:23.054Z,7816.00
2018-05-15T07:41:23.043Z,8200.00
2018-05-15T07:42:23.079Z,8608.00
2018-05-15T07:43:23.114Z,8976.00
2018-05-15T07:44:23.147Z,9472.00
2018-05-15T07:45:23.184Z,9920.00
2018-05-15T07:46:23.219Z,10308.00
2018-05-15T07:47:23.254Z,10464.00
2018-05-15T07:48:23.288Z,10280.00
2018-05-15T07:49:23.326Z,10328.00
2018-05-15T07:50:23.364Z,10712.00
2018-05-15T07:51:23.396Z,11624.00
2018-05-15T07:52:23.430Z,11744.00
2018-05-15T07:53:23.465Z,11140.00
2018-05-15T07:54:23.501Z,10184.00
2018-05-15T07:55:23.537Z,9584.00
2018-05-15T07:56:23.571Z,9432.00
2018-05-15T07:57:23.607Z,9204.00
2018-05-15T07:58:23.643Z,9360.00
2018-05-15T07:59:23.679Z,9676.00
2018-05-15T08:00:23.713Z,9588.00
2018-05-15T08:01:23.751Z,9492.00
2018-05-15T08:02:23.784Z,9872.00
2018-05-15T08:03:23.822Z,9972.00
2018-05-15T08:04:23.860Z,9216.00
2018-05-15T08:05:23.892Z,8052.00
2018-05-15T08:06:23.928Z,7280.00
2018-05-15T08:07:23.966Z,6728.00
2018-05-15T08:08:24.000Z,6424.00
2018-05-15T08:09:24.036Z,6444.00
2018-05-15T08:10:24.074Z,6356.00
2018-05-15T08:11:24.109Z,6716.00
2018-05-15T08:12:24.143Z,6916.00
2018-05-15T08:13:24.186Z,6632.00
2018-05-15T08:14:24.215Z,6372.00
2018-05-15T08:15:24.252Z,6344.00
2018-05-15T08:16:24.290Z,6080.00
2018-05-15T08:17:24.321Z,5784.00
2018-05-15T08:18:24.361Z,5928.00
2018-05-15T08:19:24.397Z,6252.00
2018-05-15T08:20:24.430Z,6576.00
2018-05-15T08:21:24.466Z,6916.00
2018-05-15T08:22:24.588Z,7984.00
2018-05-15T08:23:24.540Z,9820.00
2018-05-15T08:24:24.578Z,10544.00
2018-05-15T08:25:24.609Z,10076.00
2018-05-15T08:26:24.645Z,9124.00
2018-05-15T08:27:24.681Z,8372.00
2018-05-15T08:28:24.719Z,7744.00
2018-05-15T08:29:24.755Z,7716.00
2018-05-15T08:30:24.788Z,8332.00
2018-05-15T08:31:24.822Z,9060.00
2018-05-15T08:32:24.857Z,10904.00
2018-05-15T08:33:24.893Z,11740.00
2018-05-15T08:34:24.929Z,11464.00
2018-05-15T08:35:24.966Z,10760.00
2018-05-15T08:36:25.001Z,10304.00
2018-05-15T08:37:25.125Z,10876.00
2018-05-15T08:38:25.073Z,12248.00
2018-05-15T08:39:25.109Z,13020.00
2018-05-15T08:40:25.144Z,13788.00
2018-05-15T08:41:25.189Z,13900.00
2018-05-15T08:42:25.217Z,13352.00
2018-05-15T08:43:25.253Z,12428.00
2018-05-15T08:44:25.349Z,11064.00
2018-05-15T08:45:25.374Z,8884.00
2018-05-15T08:46:25.362Z,7708.00
2018-05-15T08:47:25.398Z,6956.00
2018-05-15T08:48:25.433Z,7156.00
2018-05-15T08:49:25.484Z,6748.00
2018-05-15T08:50:25.506Z,6852.00
2018-05-15T08:51:25.604Z,8460.00
2018-05-15T08:52:25.578Z,9048.00
2018-05-15T08:53:25.615Z,9040.00
2018-05-15T08:54:25.651Z,9972.00
2018-05-15T08:55:25.688Z,11768.00
2018-05-15T08:56:25.722Z,13012.00
2018-05-15T08:57:25.759Z,13232.00
2018-05-15T08:58:25.795Z,13440.00
2018-05-15T08:59:25.832Z,13988.00
2018-05-15T09:00:25.867Z,14032.00
2018-05-15T09:01:25.903Z,14004.00
2018-05-15T09:02:25.940Z,13824.00
2018-05-15T09:03:25.977Z,13608.00
2018-05-15T09:04:26.015Z,15632.00
2018-05-15T09:05:26.048Z,19552.00
2018-05-15T09:06:26.084Z,21728.00
2018-05-15T09:07:26.122Z,24128.00
2018-05-15T09:08:26.157Z,23680.00
2018-05-15T09:09:26.196Z,23264.00
2018-05-15T09:10:26.231Z,19840.00
2018-05-15T09:11:26.269Z,18560.00
2018-05-15T09:12:26.304Z,18432.00
2018-05-15T09:13:26.342Z,16768.00
2018-05-15T09:14:26.379Z,15068.00
2018-05-15T09:15:26.418Z,13256.00
2018-05-15T09:16:26.454Z,12240.00
2018-05-15T09:17:26.491Z,12428.00
2018-05-15T09:18:26.529Z,13252.00
2018-05-15T09:19:26.567Z,13228.00
2018-05-15T09:20:26.604Z,12860.00
2018-05-15T09:21:26.641Z,13400.00
2018-05-15T09:22:26.679Z,14144.00
2018-05-15T09:23:26.719Z,14148.00
2018-05-15T09:24:26.754Z,12624.00
2018-05-15T09:25:26.792Z,10152.00
2018-05-15T09:26:26.830Z,8516.00
2018-05-15T09:27:26.872Z,7608.00
2018-05-15T09:28:26.906Z,7004.00
2018-05-15T09:29:27.044Z,6952.00
2018-05-15T09:30:26.988Z,7680.00
2018-05-15T09:31:27.020Z,7996.00
2018-05-15T09:32:27.055Z,7512.00
2018-05-15T09:33:27.099Z,6788.00
2018-05-15T09:34:27.133Z,6936.00
2018-05-15T09:35:27.171Z,8016.00
2018-05-15T09:36:27.247Z,9928.00
2018-05-15T09:37:27.244Z,12564.00
2018-05-15T09:38:27.282Z,13632.00
2018-05-15T09:39:27.320Z,13156.00
2018-05-15T09:40:27.356Z,11720.00
2018-05-15T09:41:27.395Z,11656.00
2018-05-15T09:42:27.434Z,12760.00
2018-05-15T09:43:27.472Z,14184.00
2018-05-15T09:44:27.508Z,16288.00
2018-05-15T09:45:27.545Z,17312.00
2018-05-15T09:46:27.583Z,22816.00
2018-05-15T09:47:27.622Z,29952.00
2018-05-15T09:48:27.659Z,34176.00
2018-05-15T09:49:27.697Z,37056.00
2018-05-15T09:50:27.734Z,37600.00
2018-05-15T09:51:30.394Z,38592.00
2018-05-15T09:52:27.809Z,40224.00
2018-05-15T09:53:27.865Z,36032.00
2018-05-15T09:54:27.890Z,33408.00
2018-05-15T09:55:27.925Z,32576.00
2018-05-15T09:56:27.966Z,30592.00
2018-05-15T09:57:28.003Z,29184.00
2018-05-15T09:58:28.043Z,34496.00
2018-05-15T09:59:28.082Z,35840.00
2018-05-15T10:00:28.121Z,34208.00
2018-05-15T10:01:28.160Z,34752.00
2018-05-15T10:02:28.200Z,34016.00
2018-05-15T10:03:28.243Z,31680.00
2018-05-15T10:04:28.279Z,38112.00
2018-05-15T10:05:28.319Z,39456.00
2018-05-15T10:06:28.360Z,36320.00
2018-05-15T10:07:28.401Z,34560.00
2018-05-15T10:08:28.439Z,27712.00
2018-05-15T10:09:28.484Z,26976.00
2018-05-15T10:10:28.524Z,34400.00
2018-05-15T10:11:28.567Z,30880.00
2018-05-15T10:12:28.602Z,23040.00
2018-05-15T10:13:28.645Z,26208.00
2018-05-15T10:14:28.685Z,39168.00
2018-05-15T10:15:28.726Z,25568.00
2018-05-15T10:16:28.766Z,19552.00
2018-05-15T10:17:28.808Z,23072.00
2018-05-15T10:18:28.850Z,27040.00
2018-05-15T10:19:28.890Z,39936.00
2018-05-15T10:20:28.931Z,45888.00
2018-05-15T10:24:29.521Z,43616.00
2018-05-15T10:25:29.136Z,54240.00
2018-05-15T10:26:29.200Z,30944.00
2018-05-15T10:27:29.219Z,28128.00
2018-05-15T10:28:29.259Z,27488.00
2018-05-15T10:29:29.301Z,58496.00
2018-05-15T10:30:29.342Z,29824.00
2018-05-15T10:31:29.387Z,29344.00
2018-05-15T10:32:29.425Z,50752.00
2018-05-15T10:33:29.468Z,43776.00
2018-05-15T10:34:29.508Z,28672.00
2018-05-15T10:36:29.609Z,81632.00
2018-05-15T10:37:29.631Z,53088.00
2018-05-15T10:38:29.696Z,70528.00
2018-05-15T10:39:29.719Z,86144.00
2018-05-15T10:40:29.757Z,50624.00
2018-05-15T10:41:29.799Z,74176.00
2018-05-15T10:42:29.841Z,70176.00
2018-05-15T10:43:29.888Z,77440.00
2018-05-15T10:44:30.146Z,85120.00
2018-05-15T10:47:30.060Z,56192.00
2018-05-15T10:48:30.100Z,65472.00
2018-05-15T10:49:30.149Z,71520.00
2018-05-15T10:50:30.190Z,65728.00
2018-05-15T10:51:30.234Z,50240.00
2018-05-15T10:52:30.278Z,57856.00
2018-05-15T10:53:30.326Z,67520.00
2018-05-15T10:54:30.368Z,79904.00
2018-05-15T10:55:30.413Z,70752.00
2018-05-15T10:56:30.456Z,71328.00
2018-05-15T10:57:30.502Z,85568.00
2018-05-15T10:58:30.550Z,80224.00
2018-05-15T10:59:30.610Z,72128.00
2018-05-15T11:00:30.638Z,60832.00
2018-05-15T11:01:30.684Z,65088.00
2018-05-15T11:02:30.735Z,81632.00
2018-05-15T11:03:30.776Z,67296.00
2018-05-15T11:04:30.822Z,63584.00
2018-05-15T11:05:30.869Z,63904.00
2018-05-15T11:06:31.365Z,60448.00
2018-05-15T11:07:30.962Z,28960.00
2018-05-15T11:08:31.034Z,23296.00
2018-05-15T11:09:31.057Z,27840.00
2018-05-15T11:10:31.124Z,44416.00
2018-05-15T11:11:31.368Z,77376.00
2018-05-15T11:12:31.417Z,89056.00
2018-05-15T11:13:31.245Z,59392.00
2018-05-15T11:14:31.284Z,92256.00
2018-05-15T11:15:31.337Z,101472.00
2018-05-15T11:16:31.375Z,91744.00
2018-05-15T11:17:31.427Z,79840.00
2018-05-15T11:18:31.470Z,74880.00
2018-05-15T11:19:31.517Z,85440.00
2018-05-15T11:20:31.565Z,100000.00
2018-05-15T11:21:31.613Z,102176.00
2018-05-15T11:22:31.660Z,98688.00
2018-05-15T11:23:31.709Z,72928.00
2018-05-15T11:24:31.848Z,82240.00
2018-05-15T11:25:31.806Z,90464.00
2018-05-15T11:26:31.854Z,72128.00
2018-05-15T11:27:31.904Z,82048.00
2018-05-15T11:28:31.953Z,78496.00
2018-05-15T11:29:32.003Z,76352.00
2018-05-15T11:30:32.147Z,84032.00
2018-05-15T11:31:32.102Z,84256.00
2018-05-15T11:32:32.150Z,84800.00
2018-05-15T11:33:32.200Z,78240.00
2018-05-15T11:34:32.252Z,86880.00
2018-05-15T11:35:32.302Z,96672.00
2018-05-15T11:36:32.350Z,52896.00
2018-05-15T11:37:32.400Z,33664.00
2018-05-15T11:38:32.450Z,28448.00
2018-05-15T11:39:32.500Z,100992.00
2018-05-15T11:40:32.548Z,93216.00
2018-05-15T11:41:32.638Z,103424.00
2018-05-15T11:42:32.648Z,96704.00
2018-05-15T11:43:32.698Z,47584.00
2018-05-15T11:44:32.802Z,108160.00
2018-05-15T11:45:32.803Z,114880.00
2018-05-15T11:46:32.847Z,114176.00
2018-05-15T11:47:32.956Z,119808.00
2018-05-15T11:48:33.347Z,118432.00
2018-05-15T11:49:33.229Z,114176.00
2018-05-15T11:50:34.046Z,110144.00
2018-05-15T11:51:33.943Z,108960.00
2018-05-15T11:52:33.545Z,119200.00
2018-05-15T11:53:33.205Z,109376.00
2018-05-15T11:54:33.255Z,107328.00
2018-05-15T11:55:35.295Z,103904.00
2018-05-15T11:56:33.449Z,93152.00
2018-05-15T11:57:33.407Z,32768.00
2018-05-15T11:58:33.459Z,27488.00
2018-05-15T11:59:33.512Z,25216.00
2018-05-15T12:00:33.568Z,22144.00
2018-05-15T12:01:33.614Z,18368.00
2018-05-15T12:02:33.737Z,18144.00
2018-05-15T12:03:33.716Z,18592.00
2018-05-15T12:04:33.765Z,20736.00
2018-05-15T12:05:33.814Z,55744.00
2018-05-15T12:06:33.950Z,74528.00
2018-05-15T12:07:33.912Z,80448.00
2018-05-15T12:08:33.960Z,47776.00
2018-05-15T12:09:34.011Z,35296.00
2018-05-15T12:10:34.123Z,57440.00
2018-05-15T12:11:34.157Z,84032.00
2018-05-15T12:12:34.155Z,43872.00
2018-05-15T12:13:34.202Z,99936.00
2018-05-15T12:14:34.250Z,36096.00
2018-05-15T12:15:34.297Z,30816.00
2018-05-15T12:16:34.344Z,80928.00
2018-05-15T12:17:34.391Z,92992.00
2018-05-15T12:18:34.479Z,84544.00
2018-05-15T12:19:34.488Z,69120.00
2018-05-15T12:20:34.534Z,64192.00
2018-05-15T12:21:34.582Z,82016.00
2018-05-15T12:22:34.630Z,89792.00
2018-05-15T12:23:34.679Z,29632.00
2018-05-15T12:24:34.826Z,53984.00
2018-05-15T12:25:34.774Z,61664.00
2018-05-15T12:26:34.823Z,91456.00
2018-05-15T12:27:34.871Z,99552.00